Time;durP1;ratioP1;P1;durP2;ratioP2;P2;SDS_P1;SDS_P2;PMS_P1;PMS_P2;Temp;Humidity;BMP_temperature;BMP_pressure;BME280_temperature;BME280_humidity;BME280_pressure;Samples;Min_cycle;Max_cycle;Signal;HPM_P1;HPM_P2
2021/08/22 00:03:31;;;;;;;56.28;29.35;;;;;17.30;101047.00;;;;12939908;22;20727;-79
2021/08/22 00:08:36;;;;;;;52.38;29.35;;;;;17.30;101050.00;;;;12867070;22;20194;-78
2021/08/22 00:13:37;;;;;;;48.63;29.52;;;;;17.30;101051.00;;;;12891903;22;20240;-79
2021/08/22 00:18:38;;;;;;;51.17;27.80;;;;;17.30;101039.00;;;;12940341;22;20185;-78
2021/08/22 00:23:39;;;;;;;51.72;29.85;;;;;17.30;101033.00;;;;12913153;22;20782;-79
2021/08/22 00:28:40;;;;;;;50.22;28.88;;;;;17.20;101038.00;;;;12917762;22;20200;-79
2021/08/22 00:33:41;;;;;;;50.80;28.63;;;;;17.10;101028.00;;;;12918232;22;20177;-79
2021/08/22 00:38:47;;;;;;;52.72;28.90;;;;;17.10;101041.00;;;;12892410;22;20195;-79
2021/08/22 00:43:48;;;;;;;56.50;30.17;;;;;17.10;101042.00;;;;12892439;22;20601;-79
2021/08/22 00:48:50;;;;;;;56.40;32.42;;;;;17.10;101041.00;;;;12893415;22;20193;-79
2021/08/22 00:53:51;;;;;;;65.03;33.93;;;;;17.10;101035.00;;;;12844239;22;20601;-79
2021/08/22 00:58:52;;;;;;;62.45;35.47;;;;;17.10;101039.00;;;;12940963;22;20165;-79
2021/08/22 01:03:57;;;;;;;64.88;36.20;;;;;17.00;101035.00;;;;12935994;22;20172;-75
2021/08/22 01:09:02;;;;;;;63.43;34.43;;;;;17.00;101028.00;;;;12862334;22;20189;-77
2021/08/22 01:14:09;;;;;;;62.33;32.25;;;;;16.90;101031.00;;;;12888787;22;20173;-76
2021/08/22 01:19:28;;;;;;;64.15;34.97;;;;;16.90;101027.00;;;;12887330;22;20193;-76
2021/08/22 01:24:30;;;;;;;55.97;32.17;;;;;16.90;101019.00;;;;12838551;22;20173;-75
2021/08/22 01:29:39;;;;;;;54.25;32.42;;;;;16.90;101019.00;;;;12932981;22;20236;-76
2021/08/22 01:34:41;;;;;;;58.07;32.93;;;;;16.90;101007.00;;;;12861779;22;20177;-76
2021/08/22 01:39:43;;;;;;;49.93;31.30;;;;;16.90;101004.00;;;;12862297;22;20170;-76
2021/08/22 01:44:44;;;;;;;45.03;27.98;;;;;17.00;100998.00;;;;12933712;22;20161;-76
2021/08/22 01:49:46;;;;;;;44.90;27.60;;;;;17.00;100991.00;;;;12931774;22;20196;-75
2021/08/22 01:54:47;;;;;;;47.53;28.02;;;;;17.00;101004.00;;;;12907584;22;20236;-76
2021/08/22 01:59:48;;;;;;;37.60;26.33;;;;;16.90;101003.00;;;;12861998;22;20176;-76
2021/08/22 02:04:55;;;;;;;38.27;24.10;;;;;16.80;101013.00;;;;12886247;22;20244;-76
2021/08/22 02:10:16;;;;;;;42.90;26.07;;;;;16.80;101013.00;;;;12932189;22;20185;-76
2021/08/22 02:15:29;;;;;;;37.90;25.33;;;;;16.90;101012.00;;;;12861492;22;20244;-75
2021/08/22 02:20:32;;;;;;;41.80;25.80;;;;;16.90;101013.00;;;;12932315;22;20169;-75
2021/08/22 02:25:34;;;;;;;43.67;26.80;;;;;17.00;101017.00;;;;12932461;22;20173;-75
2021/08/22 02:30:37;;;;;;;44.25;28.02;;;;;17.00;101019.00;;;;12888107;22;20197;-76
2021/08/22 02:35:38;;;;;;;40.90;25.92;;;;;17.00;101013.00;;;;12914150;22;20173;-76
2021/08/22 02:40:39;;;;;;;41.10;26.33;;;;;17.00;101009.00;;;;12935735;22;20613;-75
2021/08/22 02:45:40;;;;;;;46.15;26.30;;;;;17.00;100998.00;;;;12888033;22;20493;-76
2021/08/22 02:50:42;;;;;;;38.17;25.17;;;;;17.00;101001.00;;;;12910257;22;20194;-76
2021/08/22 02:55:43;;;;;;;34.73;23.27;;;;;17.00;100994.00;;;;12885191;22;20172;-76
2021/08/22 03:00:44;;;;;;;31.20;22.25;;;;;16.90;100999.00;;;;12934497;22;20232;-76
2021/08/22 03:05:46;;;;;;;34.58;21.70;;;;;16.90;101008.00;;;;12863813;22;20273;-75
2021/08/22 03:10:47;;;;;;;31.33;20.87;;;;;16.90;101016.00;;;;12887778;22;20193;-76
2021/08/22 03:15:49;;;;;;;29.30;20.03;;;;;16.90;101009.00;;;;12912611;22;20205;-75
2021/08/22 03:20:50;;;;;;;29.53;19.10;;;;;16.90;101009.00;;;;12863316;22;20177;-75
2021/08/22 03:25:51;;;;;;;26.20;17.73;;;;;16.90;101013.00;;;;12887366;22;20170;-75
2021/08/22 03:30:53;;;;;;;22.53;17.67;;;;;16.90;101016.00;;;;12909063;22;20621;-76
2021/08/22 03:35:54;;;;;;;24.80;17.23;;;;;16.90;101017.00;;;;12887322;22;20182;-75
2021/08/22 03:40:55;;;;;;;23.53;16.77;;;;;17.00;101011.00;;;;12933271;22;20169;-75
2021/08/22 03:45:56;;;;;;;24.65;17.00;;;;;17.00;101024.00;;;;12908010;22;20168;-75
2021/08/22 03:50:58;;;;;;;25.58;15.65;;;;;17.00;101021.00;;;;12886577;22;20201;-76
2021/08/22 03:55:59;;;;;;;22.57;16.80;;;;;17.00;101023.00;;;;12912543;22;20170;-75
2021/08/22 04:01:01;;;;;;;22.15;17.33;;;;;17.00;101025.00;;;;12934769;22;20178;-75
2021/08/22 04:06:02;;;;;;;22.23;18.15;;;;;17.00;101021.00;;;;12862873;22;20815;-75
2021/08/22 04:11:04;;;;;;;20.30;17.02;;;;;17.00;101023.00;;;;12862698;22;20194;-76
2021/08/22 04:16:05;;;;;;;19.45;15.52;;;;;17.00;101012.00;;;;12887073;22;20185;-75
2021/08/22 04:21:06;;;;;;;20.55;14.93;;;;;17.00;101012.00;;;;12912090;22;20203;-75
2021/08/22 04:26:07;;;;;;;17.52;14.02;;;;;17.00;101007.00;;;;12933329;22;20177;-75
2021/08/22 04:31:09;;;;;;;19.47;13.13;;;;;17.00;101012.00;;;;12933189;22;20189;-75
2021/08/22 04:36:10;;;;;;;17.20;13.13;;;;;16.90;101013.00;;;;12884984;22;20170;-76
2021/08/22 04:41:21;;;;;;;16.47;12.13;;;;;16.90;101023.00;;;;12932971;22;20176;-76
2021/08/22 04:46:24;;;;;;;16.55;11.65;;;;;16.90;101027.00;;;;12912430;22;20781;-75
2021/08/22 04:51:25;;;;;;;16.77;10.60;;;;;17.00;101019.00;;;;12887911;22;20196;-76
2021/08/22 04:56:27;;;;;;;14.90;9.30;;;;;17.00;101031.00;;;;12886763;22;20176;-76
2021/08/22 05:01:28;;;;;;;15.88;9.15;;;;;16.90;101024.00;;;;12908143;22;20184;-76
2021/08/22 05:06:30;;;;;;;11.50;9.15;;;;;16.90;101024.00;;;;12862421;22;20169;-76
2021/08/22 05:11:34;;;;;;;12.02;8.40;;;;;16.80;101035.00;;;;12862171;22;20252;-76
2021/08/22 05:16:35;;;;;;;17.13;9.27;;;;;16.80;101039.00;;;;12886880;22;20565;-76
2021/08/22 05:21:36;;;;;;;13.10;9.17;;;;;16.80;101037.00;;;;12861784;22;20252;-76
2021/08/22 05:26:37;;;;;;;13.83;10.37;;;;;16.80;101040.00;;;;12933480;22;20166;-76
2021/08/22 05:31:38;;;;;;;20.15;10.85;;;;;17.00;101046.00;;;;12886499;22;20805;-76
2021/08/22 05:36:40;;;;;;;13.10;8.87;;;;;17.40;101056.00;;;;12907915;22;20490;-75
2021/08/22 05:41:41;;;;;;;12.77;7.78;;;;;17.80;101076.00;;;;12911831;22;20177;-75
2021/08/22 05:46:42;;;;;;;10.07;6.93;;;;;18.20;101076.00;;;;12933428;22;20166;-76
2021/08/22 05:51:45;;;;;;;7.97;7.18;;;;;18.60;101085.00;;;;12861097;22;20193;-75
2021/08/22 05:56:46;;;;;;;13.65;7.35;;;;;18.90;101093.00;;;;12932687;22;20169;-76
2021/08/22 06:01:47;;;;;;;8.48;6.35;;;;;19.00;101092.00;;;;12862319;22;20175;-76
2021/08/22 06:06:48;;;;;;;11.15;6.10;;;;;18.60;101082.00;;;;12933262;22;20514;-76
2021/08/22 06:11:50;;;;;;;11.90;5.65;;;;;18.40;101083.00;;;;12861448;22;20628;-76
2021/08/22 06:16:51;;;;;;;9.93;5.78;;;;;18.20;101073.00;;;;12907562;22;20259;-75
2021/08/22 06:21:52;;;;;;;9.05;5.10;;;;;18.20;101072.00;;;;12861146;22;20664;-76
2021/08/22 06:26:53;;;;;;;14.93;6.07;;;;;18.00;101067.00;;;;12862385;22;20173;-76
2021/08/22 06:31:54;;;;;;;9.23;5.88;;;;;18.20;101060.00;;;;12932369;22;20212;-75
2021/08/22 06:36:56;;;;;;;13.52;6.30;;;;;18.40;101071.00;;;;12886112;22;20169;-76
2021/08/22 06:41:57;;;;;;;10.32;5.32;;;;;18.40;101070.00;;;;12862381;22;20169;-75
2021/08/22 06:46:58;;;;;;;10.63;5.00;;;;;18.50;101084.00;;;;12907710;22;20197;-76
2021/08/22 06:52:00;;;;;;;9.23;5.35;;;;;18.70;101090.00;;;;12911689;22;20229;-76
2021/08/22 06:57:02;;;;;;;13.25;5.50;;;;;19.00;101104.00;;;;12908870;22;20631;-76
2021/08/22 07:02:04;;;;;;;10.10;4.97;;;;;18.90;101109.00;;;;12886754;22;20177;-77
2021/08/22 07:07:09;;;;;;;13.27;4.68;;;;;18.50;101109.00;;;;12887642;22;20597;-76
2021/08/22 07:12:13;;;;;;;12.25;5.20;;;;;18.60;101094.00;;;;12886893;22;20196;-76
2021/08/22 07:17:19;;;;;;;14.35;5.93;;;;;18.80;101104.00;;;;12935939;22;20192;-76
2021/08/22 07:22:21;;;;;;;9.52;4.85;;;;;18.80;101111.00;;;;12936116;22;20228;-76
2021/08/22 07:27:22;;;;;;;9.00;4.85;;;;;19.30;101112.00;;;;12936240;22;20169;-77
2021/08/22 07:32:23;;;;;;;8.65;4.40;;;;;19.50;101128.00;;;;12936701;22;20205;-77
2021/08/22 07:37:25;;;;;;;7.35;4.45;;;;;19.80;101117.00;;;;12912759;22;20171;-77
2021/08/22 07:42:26;;;;;;;8.82;5.18;;;;;20.80;101120.00;;;;12936568;22;20936;-76
2021/08/22 07:47:27;;;;;;;12.45;4.00;;;;;21.60;101116.00;;;;12936487;22;20239;-76
2021/08/22 07:52:29;;;;;;;7.35;3.97;;;;;22.20;101094.00;;;;12890351;22;20174;-76
2021/08/22 07:57:31;;;;;;;6.63;3.83;;;;;23.00;101101.00;;;;12936397;22;20596;-77
2021/08/22 08:02:32;;;;;;;10.68;5.05;;;;;22.00;101125.00;;;;12890222;22;20177;-76
2021/08/22 08:07:33;;;;;;;9.88;4.20;;;;;21.40;101118.00;;;;12889168;22;20201;-76
2021/08/22 08:12:35;;;;;;;7.65;4.15;;;;;20.90;101119.00;;;;12889826;22;20173;-76
2021/08/22 08:17:36;;;;;;;11.23;4.65;;;;;20.50;101118.00;;;;12936544;22;20181;-76
2021/08/22 08:22:38;;;;;;;7.15;3.67;;;;;20.20;101115.00;;;;12890150;22;20739;-77
2021/08/22 08:27:39;;;;;;;6.13;4.80;;;;;20.10;101119.00;;;;12863716;22;20185;-76
2021/08/22 08:32:40;;;;;;;8.43;4.47;;;;;20.40;101111.00;;;;12889746;22;20177;-76
2021/08/22 08:37:54;;;;;;;6.72;4.80;;;;;20.70;101109.00;;;;12915546;22;20177;-76
2021/08/22 08:42:59;;;;;;;7.03;4.40;;;;;20.80;101112.00;;;;12889815;22;20169;-76
2021/08/22 08:48:01;;;;;;;8.50;4.30;;;;;20.80;101119.00;;;;12935728;22;20232;-76
2021/08/22 08:53:07;;;;;;;5.45;3.55;;;;;20.90;101115.00;;;;12889496;22;20173;-76
2021/08/22 08:58:08;;;;;;;6.55;2.78;;;;;20.90;101121.00;;;;12889315;22;20178;-76
2021/08/22 09:03:15;;;;;;;4.07;2.72;;;;;21.10;101109.00;;;;12864039;22;20549;-76
2021/08/22 09:08:50;;;;;;;4.47;3.25;;;;;20.70;101115.00;;;;12937745;22;20186;-76
2021/08/22 09:14:30;;;;;;;3.75;2.90;;;;;20.30;101119.00;;;;12889522;22;20169;-76
2021/08/22 09:20:09;;;;;;;7.03;3.80;;;;;20.30;101106.00;;;;12888595;22;20192;-76
2021/08/22 09:25:35;;;;;;;5.45;3.50;;;;;20.30;101109.00;;;;12889049;22;20174;-76
2021/08/22 09:30:49;;;;;;;4.82;3.38;;;;;20.10;101104.00;;;;12863481;22;20197;-77
2021/08/22 09:36:18;;;;;;;4.90;3.53;;;;;19.70;101101.00;;;;12865792;22;20180;-77
2021/08/22 09:41:56;;;;;;;7.20;3.55;;;;;19.80;101084.00;;;;12888185;22;20228;-76
2021/08/22 09:47:45;;;;;;;5.82;3.30;;;;;20.90;101086.00;;;;12888807;22;20188;-76
2021/08/22 09:53:24;;;;;;;5.03;3.30;;;;;21.50;101103.00;;;;12777297;22;20548;-76
2021/08/22 09:58:44;;;;;;;3.47;2.40;;;;;22.00;101089.00;;;;12914798;22;20177;-77
2021/08/22 10:04:18;;;;;;;3.60;2.08;;;;;24.10;101074.00;;;;12889052;23;20165;-77
2021/08/22 10:09:23;;;;;;;3.65;1.98;;;;;24.40;101076.00;;;;12843938;22;20197;-76
2021/08/22 10:14:26;;;;;;;2.10;1.90;;;;;24.60;101096.00;;;;12935904;22;20165;-77
2021/08/22 10:19:28;;;;;;;3.47;2.13;;;;;23.90;101087.00;;;;12910164;22;20181;-77
2021/08/22 10:24:35;;;;;;;2.58;2.30;;;;;24.00;101089.00;;;;12914167;22;20169;-77
2021/08/22 10:29:48;;;;;;;2.65;2.28;;;;;23.60;101084.00;;;;12863834;22;20197;-77
2021/08/22 10:35:14;;;;;;;3.42;2.25;;;;;23.10;101091.00;;;;12889787;22;20177;-77
2021/08/22 10:40:21;;;;;;;3.13;2.20;;;;;23.90;101089.00;;;;12935881;22;20533;-77
2021/08/22 10:45:52;;;;;;;4.68;3.25;;;;;25.40;101082.00;;;;12911088;22;20440;-77
2021/08/22 10:50:57;;;;;;;3.17;2.30;;;;;24.90;101087.00;;;;12890248;22;20220;-77
2021/08/22 10:56:19;;;;;;;3.10;2.42;;;;;23.70;101090.00;;;;12891577;22;20208;-77
2021/08/22 11:01:20;;;;;;;5.07;2.20;;;;;23.50;101084.00;;;;12891607;22;20621;-77
2021/08/22 11:06:21;;;;;;;2.72;2.08;;;;;23.40;101084.00;;;;12937589;22;20821;-77
2021/08/22 11:11:22;;;;;;;3.85;2.50;;;;;23.30;101088.00;;;;12916137;22;20202;-77
2021/08/22 11:16:49;;;;;;;5.53;2.20;;;;;22.30;101090.00;;;;12891096;22;20201;-76
2021/08/22 11:21:50;;;;;;;2.13;1.92;;;;;22.50;101092.00;;;;12937200;22;20501;-77
2021/08/22 11:27:00;;;;;;;2.33;2.03;;;;;23.20;101096.00;;;;12891592;22;20169;-76
2021/08/22 11:32:03;;;;;;;2.55;1.80;;;;;23.90;101103.00;;;;12938246;22;20197;-77
2021/08/22 11:37:14;;;;;;;2.47;1.90;;;;;24.20;101114.00;;;;12936807;22;20172;-77
2021/08/22 11:42:21;;;;;;;3.15;1.90;;;;;23.00;101115.00;;;;12868196;22;20177;-77
2021/08/22 11:47:22;;;;;;;2.92;1.88;;;;;22.90;101096.00;;;;12891715;22;20169;-77
2021/08/22 11:52:24;;;;;;;4.38;1.63;;;;;23.70;101090.00;;;;12892050;22;20170;-77
2021/08/22 11:57:28;;;;;;;3.58;1.58;;;;;24.50;101092.00;;;;12916990;22;20170;-77
2021/08/22 12:02:29;;;;;;;2.88;2.03;;;;;23.40;101116.00;;;;12892039;22;20175;-77
2021/08/22 12:07:30;;;;;;;2.95;2.10;;;;;22.60;101116.00;;;;12866176;22;20169;-77
2021/08/22 12:12:43;;;;;;;3.65;2.00;;;;;22.30;101119.00;;;;12867397;22;20192;-76
2021/08/22 12:17:44;;;;;;;3.88;2.33;;;;;22.30;101124.00;;;;12890559;22;20190;-77
2021/08/22 12:23:03;;;;;;;2.60;2.00;;;;;21.50;101151.00;;;;12920489;22;20265;-79
2021/08/22 12:28:27;;;;;;;4.72;2.60;;;;;20.90;101145.00;;;;12893304;22;20195;-78
2021/08/22 12:33:33;;;;;;;3.20;2.60;;;;;21.50;101146.00;;;;12892984;22;20180;-79
2021/08/22 12:38:40;;;;;;;3.38;2.95;;;;;21.80;101136.00;;;;12867449;22;20497;-79
2021/08/22 12:43:41;;;;;;;2.95;2.65;;;;;20.90;101146.00;;;;12893825;22;20261;-79
2021/08/22 12:48:44;;;;;;;6.20;3.63;;;;;20.30;101137.00;;;;12844433;22;20193;-79
2021/08/22 12:53:45;;;;;;;6.13;3.80;;;;;19.80;101139.00;;;;12892534;22;20165;-78
2021/08/22 12:58:47;;;;;;;10.15;5.25;;;;;19.60;101144.00;;;;12891297;22;20648;-77
2021/08/22 13:03:49;;;;;;;5.57;5.07;;;;;19.70;101160.00;;;;12890738;22;20174;-77
2021/08/22 13:08:52;;;;;;;5.88;5.30;;;;;19.70;101155.00;;;;12936495;22;20209;-77
2021/08/22 13:13:55;;;;;;;7.50;6.05;;;;;19.90;101161.00;;;;12911031;22;20169;-76
2021/08/22 13:18:56;;;;;;;7.05;6.35;;;;;20.10;101164.00;;;;12865858;22;20711;-77
2021/08/22 13:23:57;;;;;;;8.00;5.93;;;;;20.70;101163.00;;;;12891687;22;20172;-77
2021/08/22 13:28:58;;;;;;;7.03;5.85;;;;;20.20;101177.00;;;;12892049;22;20208;-77
2021/08/22 13:34:01;;;;;;;9.25;4.55;;;;;19.50;101185.00;;;;12866818;22;20179;-77
2021/08/22 13:39:03;;;;;;;6.18;5.55;;;;;18.60;101187.00;;;;12940217;22;20162;-81
2021/08/22 13:44:04;;;;;;;6.72;5.18;;;;;18.10;101160.00;;;;12870803;22;20281;-82
2021/08/22 13:49:06;;;;;;;7.82;5.35;;;;;17.80;101166.00;;;;12941619;22;20267;-82
2021/08/22 13:54:10;;;;;;;9.05;6.32;;;;;17.70;101155.00;;;;12895125;22;20260;-82
2021/08/22 13:59:11;;;;;;;10.80;7.88;;;;;18.00;101156.00;;;;12893962;22;20606;-80
2021/08/22 14:04:12;;;;;;;10.57;8.70;;;;;18.60;101164.00;;;;12840589;22;20628;-79
2021/08/22 14:09:13;;;;;;;11.30;10.23;;;;;19.40;101176.00;;;;12916253;22;20197;-78
2021/08/22 14:14:14;;;;;;;14.05;10.40;;;;;20.20;101195.00;;;;12889827;22;20183;-78
2021/08/22 14:19:16;;;;;;;11.82;10.00;;;;;21.80;101204.00;;;;12891518;22;20195;-78
2021/08/22 14:24:17;;;;;;;11.00;9.95;;;;;21.90;101209.00;;;;12892980;22;20256;-78
2021/08/22 14:29:18;;;;;;;11.52;10.43;;;;;20.30;101211.00;;;;12892921;22;20197;-77
2021/08/22 14:34:19;;;;;;;11.18;10.07;;;;;19.60;101192.00;;;;12892720;22;20813;-82
2021/08/22 14:39:21;;;;;;;12.75;10.57;;;;;19.10;101188.00;;;;12871571;22;20173;-80
2021/08/22 14:44:22;;;;;;;14.70;12.02;;;;;18.90;101177.00;;;;12915095;22;20169;-78
2021/08/22 14:49:24;;;;;;;15.35;12.85;;;;;19.10;101180.00;;;;12941031;22;20622;-80
2021/08/22 14:54:25;;;;;;;13.80;12.50;;;;;20.00;101187.00;;;;12869418;22;20165;-78
2021/08/22 14:59:28;;;;;;;14.98;12.93;;;;;21.00;101207.00;;;;12917919;22;20663;-78
2021/08/22 15:04:30;;;;;;;12.63;10.07;;;;;21.10;101221.00;;;;12843649;22;20626;-78
2021/08/22 15:09:31;;;;;;;10.48;9.48;;;;;22.80;101228.00;;;;12913662;22;20516;-77
2021/08/22 15:14:32;;;;;;;11.18;7.93;;;;;22.30;101247.00;;;;12866629;22;20181;-77
2021/08/22 15:19:34;;;;;;;9.45;6.90;;;;;21.00;101253.00;;;;12890681;22;20659;-77
2021/08/22 15:24:37;;;;;;;14.70;8.75;;;;;19.50;101236.00;;;;12914514;22;20169;-83
2021/08/22 15:29:38;;;;;;;11.63;6.85;;;;;18.60;101213.00;;;;12869401;22;20345;-78
2021/08/22 15:34:40;;;;;;;13.23;8.63;;;;;18.80;101205.00;;;;12938002;22;20165;-77
2021/08/22 15:39:42;;;;;;;16.50;11.30;;;;;19.20;101214.00;;;;12914813;22;20233;-76
2021/08/22 15:44:43;;;;;;;14.55;11.07;;;;;19.30;101219.00;;;;12915307;22;20165;-76
2021/08/22 15:49:44;;;;;;;17.00;11.00;;;;;19.30;101222.00;;;;12889614;22;20201;-77
2021/08/22 15:54:45;;;;;;;14.73;11.70;;;;;19.30;101219.00;;;;12889144;22;20170;-76
2021/08/22 15:59:46;;;;;;;13.63;11.63;;;;;19.70;101227.00;;;;12934700;22;20628;-76
2021/08/22 16:04:48;;;;;;;19.08;12.60;;;;;19.90;101233.00;;;;12934166;22;20166;-76
2021/08/22 16:09:50;;;;;;;16.35;13.13;;;;;20.30;101244.00;;;;12888963;22;20189;-75
2021/08/22 16:14:52;;;;;;;16.83;12.73;;;;;20.40;101251.00;;;;12839761;22;20224;-76
2021/08/22 16:19:53;;;;;;;16.40;13.38;;;;;20.20;101251.00;;;;12863324;22;20752;-76
2021/08/22 16:24:54;;;;;;;17.35;11.60;;;;;20.30;101253.00;;;;12913360;22;20184;-76
2021/08/22 16:29:55;;;;;;;15.98;12.25;;;;;19.90;101262.00;;;;12909326;22;20466;-76
2021/08/22 16:34:57;;;;;;;14.73;11.68;;;;;19.40;101248.00;;;;12888040;22;20494;-76
2021/08/22 16:39:58;;;;;;;13.90;12.30;;;;;19.00;101240.00;;;;12888220;22;20224;-76
2021/08/22 16:44:59;;;;;;;11.98;9.90;;;;;19.10;101241.00;;;;12913866;22;20174;-76
2021/08/22 16:50:02;;;;;;;17.60;9.32;;;;;19.10;101249.00;;;;12888243;22;20517;-75
2021/08/22 16:55:04;;;;;;;7.22;5.30;;;;;19.10;101259.00;;;;12888466;22;20169;-76
2021/08/22 17:00:06;;;;;;;5.57;3.78;;;;;18.90;101264.00;;;;12888414;22;20173;-76
2021/08/22 17:05:08;;;;;;;4.10;3.70;;;;;18.70;101263.00;;;;12887874;22;20169;-75
2021/08/22 17:10:10;;;;;;;5.35;2.88;;;;;18.50;101267.00;;;;12861435;22;20197;-75
2021/08/22 17:15:11;;;;;;;4.00;3.13;;;;;18.30;101266.00;;;;12887659;22;20597;-76
2021/08/22 17:20:12;;;;;;;3.00;2.40;;;;;18.30;101272.00;;;;12863457;22;20170;-75
2021/08/22 17:25:13;;;;;;;3.50;2.60;;;;;18.30;101284.00;;;;12888351;22;20173;-76
2021/08/22 17:30:14;;;;;;;4.47;2.50;;;;;18.20;101282.00;;;;12934556;22;20197;-76
2021/08/22 17:35:16;;;;;;;3.30;2.28;;;;;18.10;101284.00;;;;12934526;22;20165;-75
2021/08/22 17:40:20;;;;;;;4.65;2.55;;;;;17.90;101280.00;;;;12839142;22;20280;-76
2021/08/22 17:45:21;;;;;;;6.28;2.65;;;;;17.80;101279.00;;;;12863481;22;20543;-75
2021/08/22 17:50:22;;;;;;;8.27;2.88;;;;;17.60;101279.00;;;;12879003;22;20189;-76
2021/08/22 17:55:23;;;;;;;5.45;3.83;;;;;17.50;101275.00;;;;12854655;22;20177;-76
2021/08/22 18:00:25;;;;;;;4.63;3.58;;;;;17.40;101269.00;;;;12858269;22;20177;-76
2021/08/22 18:05:26;;;;;;;6.35;4.40;;;;;17.40;101280.00;;;;12858536;22;20169;-77
2021/08/22 18:10:27;;;;;;;6.53;4.32;;;;;17.40;101286.00;;;;12857664;22;20212;-78
2021/08/22 18:15:28;;;;;;;3.60;2.85;;;;;17.40;101289.00;;;;12862186;22;20173;-79
2021/08/22 18:20:30;;;;;;;3.80;2.90;;;;;17.10;101305.00;;;;12860332;22;20173;-77
2021/08/22 18:25:31;;;;;;;2.83;2.50;;;;;16.90;101320.00;;;;12927815;22;20165;-77
2021/08/22 18:30:32;;;;;;;4.00;2.65;;;;;16.80;101326.00;;;;12857878;22;20725;-78
2021/08/22 18:35:34;;;;;;;3.88;3.05;;;;;16.70;101331.00;;;;12911092;22;21364;-78
2021/08/22 18:40:37;;;;;;;5.50;2.88;;;;;16.50;101331.00;;;;12859128;22;20855;-77
2021/08/22 18:45:38;;;;;;;5.47;3.03;;;;;16.40;101349.00;;;;12885241;22;20173;-77
2021/08/22 18:50:39;;;;;;;4.03;3.40;;;;;16.40;101364.00;;;;12859114;22;20197;-77
2021/08/22 18:55:40;;;;;;;6.03;5.05;;;;;16.40;101365.00;;;;12859318;22;20169;-77
2021/08/22 19:00:42;;;;;;;7.18;6.47;;;;;16.40;101371.00;;;;12883729;22;20174;-77
2021/08/22 19:05:43;;;;;;;8.93;6.27;;;;;16.40;101375.00;;;;12851071;22;20177;-77
2021/08/22 19:10:44;;;;;;;7.45;5.07;;;;;16.40;101377.00;;;;12900221;22;20200;-76
2021/08/22 19:15:46;;;;;;;6.07;5.43;;;;;16.40;101395.00;;;;12908070;22;20276;-76
2021/08/22 19:20:47;;;;;;;6.27;5.67;;;;;16.40;101402.00;;;;12833962;22;20179;-76
2021/08/22 19:25:48;;;;;;;7.43;6.05;;;;;16.50;101421.00;;;;12859053;22;20181;-76
2021/08/22 19:30:49;;;;;;;7.20;6.50;;;;;16.50;101422.00;;;;12880509;22;20219;-75
2021/08/22 19:35:51;;;;;;;8.75;7.45;;;;;16.50;101429.00;;;;12856060;22;20256;-76
2021/08/22 19:40:52;;;;;;;13.15;9.50;;;;;16.60;101435.00;;;;12857755;22;20169;-75
2021/08/22 19:45:54;;;;;;;11.25;10.10;;;;;16.60;101436.00;;;;12882603;22;20192;-76
2021/08/22 19:50:55;;;;;;;14.97;11.63;;;;;16.60;101443.00;;;;12880837;22;20236;-76
2021/08/22 19:55:56;;;;;;;12.35;11.00;;;;;16.60;101441.00;;;;12882773;22;20177;-76
2021/08/22 20:00:57;;;;;;;14.32;10.70;;;;;16.60;101456.00;;;;12881637;22;20557;-76
2021/08/22 20:05:59;;;;;;;15.53;12.10;;;;;16.60;101459.00;;;;12858180;22;20300;-76
2021/08/22 20:11:03;;;;;;;11.85;10.63;;;;;16.60;101459.00;;;;12882212;22;20185;-76
2021/08/22 20:16:05;;;;;;;14.15;11.55;;;;;16.70;101466.00;;;;12858398;22;20193;-76
2021/08/22 20:21:07;;;;;;;13.80;10.98;;;;;16.70;101476.00;;;;12905681;22;20175;-76
2021/08/22 20:26:08;;;;;;;13.32;10.02;;;;;16.70;101475.00;;;;12883691;22;20173;-76
2021/08/22 20:31:09;;;;;;;11.02;9.20;;;;;16.70;101475.00;;;;12840052;22;20936;-80
2021/08/22 20:36:12;;;;;;;13.52;10.77;;;;;16.60;101481.00;;;;12891850;22;20181;-79
2021/08/22 20:41:13;;;;;;;16.40;10.55;;;;;16.70;101482.00;;;;12863385;22;20166;-80
2021/08/22 20:46:14;;;;;;;12.93;9.65;;;;;16.70;101488.00;;;;12864957;22;20169;-78
2021/08/22 20:51:19;;;;;;;14.07;10.93;;;;;16.70;101483.00;;;;12915288;22;20635;-77
2021/08/22 20:56:22;;;;;;;17.17;11.82;;;;;16.70;101482.00;;;;12838373;22;20173;-77
2021/08/22 21:01:23;;;;;;;21.02;14.75;;;;;16.70;101480.00;;;;12887248;22;20177;-78
2021/08/22 21:06:24;;;;;;;24.33;17.77;;;;;16.80;101480.00;;;;12888655;22;20166;-77
2021/08/22 21:11:27;;;;;;;30.50;19.60;;;;;16.80;101495.00;;;;12907789;22;20199;-77
2021/08/22 21:16:28;;;;;;;30.25;18.75;;;;;16.80;101485.00;;;;12860890;22;20288;-77
2021/08/22 21:21:30;;;;;;;37.97;21.77;;;;;16.80;101478.00;;;;12856795;22;20169;-77
2021/08/22 21:26:32;;;;;;;30.13;19.77;;;;;16.90;101479.00;;;;12860864;22;20173;-77
2021/08/22 21:31:33;;;;;;;34.33;20.75;;;;;16.90;101474.00;;;;12860312;22;20197;-77
2021/08/22 21:36:38;;;;;;;32.15;20.80;;;;;17.00;101488.00;;;;12833790;22;20180;-77
2021/08/22 21:41:54;;;;;;;33.05;20.20;;;;;17.00;101491.00;;;;12890516;22;20177;-77
2021/08/22 21:46:55;;;;;;;40.30;22.63;;;;;17.00;101499.00;;;;12886608;22;20177;-78
2021/08/22 21:51:58;;;;;;;33.65;22.83;;;;;17.00;101487.00;;;;12886332;22;20193;-79
2021/08/22 21:57:01;;;;;;;35.42;23.40;;;;;17.10;101489.00;;;;12885211;22;20184;-77
2021/08/22 22:02:02;;;;;;;42.90;25.38;;;;;17.10;101501.00;;;;12911335;22;20174;-77
2021/08/22 22:07:04;;;;;;;39.42;25.58;;;;;17.10;101504.00;;;;12887075;22;20200;-77
2021/08/22 22:12:05;;;;;;;37.88;25.63;;;;;17.10;101502.00;;;;12886913;22;20257;-77
2021/08/22 22:17:06;;;;;;;36.13;22.98;;;;;17.10;101494.00;;;;12911318;22;20266;-77
2021/08/22 22:22:09;;;;;;;45.45;25.20;;;;;17.10;101502.00;;;;12885422;22;20173;-78
2021/08/22 22:27:10;;;;;;;41.45;23.67;;;;;17.10;101498.00;;;;12885458;22;20260;-77
2021/08/22 22:32:11;;;;;;;32.50;21.88;;;;;17.10;101493.00;;;;12861013;22;20192;-77
2021/08/22 22:37:12;;;;;;;40.45;24.25;;;;;17.10;101502.00;;;;12864318;22;20536;-80
2021/08/22 22:42:13;;;;;;;39.67;23.33;;;;;17.10;101505.00;;;;12865308;22;20177;-79
2021/08/22 22:47:14;;;;;;;29.73;20.15;;;;;17.10;101500.00;;;;12890675;22;20695;-79
2021/08/22 22:52:16;;;;;;;29.85;20.20;;;;;17.10;101499.00;;;;12914969;22;20204;-78
2021/08/22 22:57:17;;;;;;;32.92;20.70;;;;;17.10;101505.00;;;;12843837;22;20173;-79
2021/08/22 23:02:18;;;;;;;22.20;16.02;;;;;17.10;101514.00;;;;12891613;22;20173;-78
2021/08/22 23:07:19;;;;;;;34.38;16.75;;;;;17.10;101498.00;;;;12889847;22;20173;-79
2021/08/22 23:12:20;;;;;;;30.00;17.52;;;;;17.00;101495.00;;;;12890146;22;20207;-79
2021/08/22 23:17:21;;;;;;;21.10;15.73;;;;;17.00;101499.00;;;;12891763;22;20660;-79
2021/08/22 23:22:23;;;;;;;33.83;19.20;;;;;17.00;101494.00;;;;12892328;22;20169;-79
2021/08/22 23:27:24;;;;;;;30.17;19.83;;;;;16.90;101488.00;;;;12843398;22;20173;-79
2021/08/22 23:32:25;;;;;;;32.05;19.30;;;;;16.90;101498.00;;;;12867216;22;20193;-79
2021/08/22 23:37:26;;;;;;;27.02;16.38;;;;;16.80;101475.00;;;;12866432;22;20174;-82
2021/08/22 23:42:27;;;;;;;28.63;18.42;;;;;16.70;101486.00;;;;12842447;22;20181;-82
2021/08/22 23:47:28;;;;;;;30.63;18.65;;;;;16.70;101495.00;;;;12866282;22;20177;-82
2021/08/22 23:52:29;;;;;;;32.60;17.42;;;;;16.70;101491.00;;;;12887845;22;20269;-82
2021/08/22 23:57:31;;;;;;;25.20;15.57;;;;;16.70;101503.00;;;;12866426;22;20177;-81
